Time;durP1;ratioP1;P1;durP2;ratioP2;P2;SDS_P1;SDS_P2;PMS_P1;PMS_P2;Temp;Humidity;BMP_temperature;BMP_pressure;BME280_temperature;BME280_humidity;BME280_pressure;Samples;Min_cycle;Max_cycle;Signal;HPM_P1;HPM_P2
2023/12/26 00:00:29;;;;;;;0.15;0.05;;;10.40;99.90;;;;;;4972681;28;20054;-77
2023/12/26 00:02:54;;;;;;;0.00;0.00;;;10.40;99.90;;;;;;4957009;28;20392;-77
2023/12/26 00:05:21;;;;;;;0.10;0.10;;;10.40;99.90;;;;;;4952589;28;20395;-77
2023/12/26 00:07:47;;;;;;;0.10;0.00;;;10.40;99.90;;;;;;4963176;28;21276;-77
2023/12/26 00:10:15;;;;;;;0.75;0.10;;;10.40;99.90;;;;;;4952269;28;20061;-77
2023/12/26 00:12:42;;;;;;;0.05;0.00;;;10.40;99.90;;;;;;4968921;28;20043;-77
2023/12/26 00:15:08;;;;;;;0.00;0.00;;;10.40;99.90;;;;;;4970811;28;20510;-77
2023/12/26 00:17:34;;;;;;;0.10;0.10;;;10.40;99.90;;;;;;4966267;28;20039;-77
2023/12/26 00:20:00;;;;;;;0.38;0.10;;;10.40;99.90;;;;;;4955647;28;20186;-77
2023/12/26 00:22:26;;;;;;;0.25;0.10;;;10.50;99.90;;;;;;4964310;28;20042;-77
2023/12/26 00:24:52;;;;;;;0.00;0.00;;;10.50;99.90;;;;;;4954886;28;20104;-77
2023/12/26 00:27:18;;;;;;;0.25;0.00;;;10.50;99.90;;;;;;4966492;28;20054;-77
2023/12/26 00:29:44;;;;;;;0.00;0.00;;;10.50;99.90;;;;;;4968490;28;20046;-77
2023/12/26 00:32:10;;;;;;;0.00;0.00;;;10.50;99.90;;;;;;4950492;28;20494;-77
2023/12/26 00:34:35;;;;;;;0.00;0.00;;;10.50;99.90;;;;;;4953210;28;20726;-77
2023/12/26 00:37:01;;;;;;;0.30;0.03;;;10.50;99.90;;;;;;4967928;28;20043;-77
2023/12/26 00:39:27;;;;;;;0.00;0.00;;;10.60;99.90;;;;;;4952906;28;20043;-77
2023/12/26 00:41:53;;;;;;;3.50;0.17;;;10.60;99.90;;;;;;4965993;28;20051;-77
2023/12/26 00:44:19;;;;;;;0.10;0.00;;;10.50;99.90;;;;;;4968242;28;20121;-77
2023/12/26 00:46:46;;;;;;;0.10;0.00;;;10.60;99.90;;;;;;4951546;28;20166;-77
2023/12/26 00:49:13;;;;;;;0.00;0.00;;;10.60;99.90;;;;;;4964828;28;20716;-77
2023/12/26 00:51:38;;;;;;;0.00;0.00;;;10.60;99.90;;;;;;4965453;28;20031;-77
2023/12/26 00:54:05;;;;;;;0.00;0.00;;;10.60;99.90;;;;;;4964689;28;20068;-77
2023/12/26 00:56:30;;;;;;;0.70;0.20;;;10.60;99.90;;;;;;4966229;28;20500;-77
2023/12/26 00:58:56;;;;;;;0.00;0.00;;;10.60;99.90;;;;;;4968177;28;20041;-77
2023/12/26 01:01:22;;;;;;;0.13;0.08;;;10.60;99.90;;;;;;4970126;28;20039;-77
2023/12/26 01:03:47;;;;;;;0.00;0.00;;;10.60;99.90;;;;;;4967447;28;20130;-77
2023/12/26 01:06:14;;;;;;;0.05;0.00;;;10.60;99.90;;;;;;4948683;28;20831;-76
2023/12/26 01:08:40;;;;;;;1.00;0.00;;;10.60;99.90;;;;;;4953431;28;20529;-76
2023/12/26 01:11:06;;;;;;;0.47;0.10;;;10.60;99.90;;;;;;4966809;28;20031;-77
2023/12/26 01:13:34;;;;;;;0.00;0.00;;;10.60;99.90;;;;;;4968940;28;20110;-76
2023/12/26 01:16:02;;;;;;;0.30;0.13;;;10.60;99.90;;;;;;4965210;28;20059;-76
2023/12/26 01:18:29;;;;;;;0.00;0.00;;;10.50;99.90;;;;;;4970273;28;20047;-77
2023/12/26 01:20:55;;;;;;;2.17;0.10;;;10.60;99.90;;;;;;4967793;28;20057;-77
2023/12/26 01:23:21;;;;;;;0.10;0.10;;;10.50;99.90;;;;;;4968313;28;20042;-77
2023/12/26 01:25:47;;;;;;;0.85;0.08;;;10.50;99.90;;;;;;4967963;28;20415;-77
2023/12/26 01:28:13;;;;;;;0.20;0.10;;;10.50;99.90;;;;;;4970613;28;20118;-76
2023/12/26 01:30:40;;;;;;;0.80;0.00;;;10.50;99.90;;;;;;4969207;28;20125;-76
2023/12/26 01:33:07;;;;;;;0.17;0.00;;;10.50;99.90;;;;;;4954418;28;20047;-76
2023/12/26 01:35:32;;;;;;;0.00;0.00;;;10.50;99.90;;;;;;4964087;28;20089;-76
2023/12/26 01:37:58;;;;;;;0.00;0.00;;;10.50;99.90;;;;;;4969067;28;20085;-76
2023/12/26 01:40:24;;;;;;;0.00;0.00;;;10.40;99.90;;;;;;4954898;28;20046;-76
2023/12/26 01:42:50;;;;;;;0.20;0.05;;;10.40;99.90;;;;;;4966803;28;20043;-76
2023/12/26 01:45:17;;;;;;;0.00;0.00;;;10.40;99.90;;;;;;4967477;28;20043;-76
2023/12/26 01:47:45;;;;;;;5.15;0.28;;;10.30;99.90;;;;;;4967645;28;20117;-76
2023/12/26 01:50:14;;;;;;;0.15;0.10;;;10.40;99.90;;;;;;4948864;28;20047;-77
2023/12/26 01:52:40;;;;;;;0.30;0.10;;;10.30;99.90;;;;;;4951314;28;20042;-76
2023/12/26 01:55:08;;;;;;;3.30;0.10;;;10.30;99.90;;;;;;4969082;28;20047;-76
2023/12/26 01:57:35;;;;;;;0.65;0.22;;;10.30;99.90;;;;;;4949097;28;20596;-76
2023/12/26 02:00:04;;;;;;;0.00;0.00;;;10.30;99.90;;;;;;4968395;28;20054;-77
2023/12/26 02:02:32;;;;;;;0.32;0.10;;;10.30;99.90;;;;;;4954161;28;20109;-77
2023/12/26 02:04:58;;;;;;;0.70;0.10;;;10.30;99.90;;;;;;4959490;28;20122;-77
2023/12/26 02:07:25;;;;;;;0.28;0.28;;;10.30;99.90;;;;;;4953460;28;20074;-77
2023/12/26 02:09:51;;;;;;;0.85;0.45;;;10.20;99.90;;;;;;4969065;28;20096;-77
2023/12/26 02:12:18;;;;;;;1.55;0.43;;;10.20;99.90;;;;;;4953886;28;20130;-77
2023/12/26 02:14:44;;;;;;;0.70;0.05;;;10.20;99.90;;;;;;4952498;28;20125;-77
2023/12/26 02:17:15;;;;;;;0.32;0.15;;;10.20;99.90;;;;;;4967798;28;20042;-76
2023/12/26 02:19:46;;;;;;;0.15;0.15;;;10.20;99.90;;;;;;4967844;28;20451;-77
2023/12/26 02:22:12;;;;;;;4.10;0.38;;;10.20;99.90;;;;;;4967189;28;20050;-77
2023/12/26 02:24:42;;;;;;;0.00;0.00;;;10.20;99.90;;;;;;4961107;28;20047;-77
2023/12/26 02:27:17;;;;;;;0.35;0.30;;;10.20;99.90;;;;;;4952615;28;20605;-77
2023/12/26 02:29:45;;;;;;;0.95;0.08;;;10.20;99.90;;;;;;4964265;28;20043;-77
2023/12/26 02:32:12;;;;;;;3.40;0.22;;;10.20;99.90;;;;;;4950246;28;20546;-76
2023/12/26 02:34:38;;;;;;;2.80;0.20;;;10.20;99.90;;;;;;4969549;28;20117;-77
2023/12/26 02:37:04;;;;;;;0.43;0.10;;;10.20;99.90;;;;;;4968993;28;20466;-77
2023/12/26 02:39:30;;;;;;;0.05;0.00;;;10.20;99.90;;;;;;4946504;28;20043;-76
2023/12/26 02:41:55;;;;;;;0.45;0.13;;;10.20;99.90;;;;;;4952054;28;20093;-77
2023/12/26 02:44:21;;;;;;;1.13;0.00;;;10.20;99.90;;;;;;4965150;28;20479;-76
2023/12/26 02:46:47;;;;;;;0.00;0.00;;;10.20;99.90;;;;;;4968580;28;20059;-76
2023/12/26 02:49:12;;;;;;;3.30;0.10;;;10.20;99.90;;;;;;4951031;28;20062;-76
2023/12/26 02:51:38;;;;;;;1.52;0.52;;;10.30;99.90;;;;;;4963560;28;20031;-76
2023/12/26 02:54:04;;;;;;;4.28;0.22;;;10.20;99.90;;;;;;4952783;28;20051;-77
2023/12/26 02:56:30;;;;;;;0.15;0.08;;;10.30;99.90;;;;;;4966779;28;20093;-77
2023/12/26 02:58:55;;;;;;;4.95;0.25;;;10.30;99.90;;;;;;4968895;28;20027;-77
2023/12/26 03:01:21;;;;;;;0.03;0.03;;;10.20;99.90;;;;;;4966512;28;20113;-76
2023/12/26 03:03:47;;;;;;;1.65;0.00;;;10.20;99.90;;;;;;4969345;28;20098;-77
2023/12/26 03:06:12;;;;;;;2.28;0.20;;;10.20;99.90;;;;;;4950711;28;20051;-76
2023/12/26 03:08:38;;;;;;;0.47;0.13;;;10.20;99.90;;;;;;4951651;28;20765;-76
2023/12/26 03:11:04;;;;;;;1.52;0.22;;;10.20;99.90;;;;;;4952312;28;20511;-76
2023/12/26 03:13:30;;;;;;;1.08;0.28;;;10.20;99.90;;;;;;4969798;28;20081;-76
2023/12/26 03:15:55;;;;;;;4.25;0.93;;;10.20;99.90;;;;;;4951554;28;20095;-76
2023/12/26 03:18:21;;;;;;;0.65;0.00;;;10.20;99.90;;;;;;4968633;28;20043;-76
2023/12/26 03:20:47;;;;;;;1.55;0.30;;;10.20;99.90;;;;;;4959692;28;20039;-76
2023/12/26 03:23:12;;;;;;;2.78;0.17;;;10.20;99.90;;;;;;4972321;28;20126;-76
2023/12/26 03:25:38;;;;;;;0.80;0.10;;;10.20;99.90;;;;;;4972668;28;20403;-76
2023/12/26 03:28:04;;;;;;;0.08;0.03;;;10.20;99.90;;;;;;4971594;28;20078;-76
2023/12/26 03:30:32;;;;;;;0.32;0.10;;;10.30;99.90;;;;;;4954657;28;20122;-76
2023/12/26 03:32:57;;;;;;;1.55;0.00;;;10.10;99.90;;;;;;4972798;28;20043;-76
2023/12/26 03:35:23;;;;;;;2.22;0.57;;;9.80;99.90;;;;;;4971969;28;20093;-77
2023/12/26 03:37:49;;;;;;;0.88;0.22;;;9.60;99.90;;;;;;4955014;28;20039;-76
2023/12/26 03:40:16;;;;;;;0.28;0.10;;;9.30;99.90;;;;;;4956035;28;20082;-76
2023/12/26 03:42:42;;;;;;;0.77;0.20;;;9.20;99.90;;;;;;4971118;28;20043;-76
2023/12/26 03:45:09;;;;;;;1.00;0.17;;;9.10;99.90;;;;;;4970317;28;20447;-77
2023/12/26 03:47:34;;;;;;;1.75;0.03;;;9.00;99.90;;;;;;4949030;28;20062;-77
2023/12/26 03:50:01;;;;;;;1.60;0.03;;;9.00;99.90;;;;;;4972782;28;20073;-77
2023/12/26 03:52:27;;;;;;;0.43;0.10;;;8.90;99.90;;;;;;4970992;28;20050;-76
2023/12/26 03:54:55;;;;;;;0.20;0.20;;;8.90;99.90;;;;;;4971720;28;20773;-76
2023/12/26 03:57:21;;;;;;;0.03;0.03;;;8.90;99.90;;;;;;4971786;28;20054;-76
2023/12/26 03:59:47;;;;;;;0.22;0.20;;;8.90;99.90;;;;;;4970737;28;20046;-77
2023/12/26 04:02:13;;;;;;;2.58;0.63;;;8.90;99.90;;;;;;4969277;28;20073;-76
2023/12/26 04:04:38;;;;;;;4.43;0.60;;;8.90;99.90;;;;;;4967428;28;20042;-77
2023/12/26 04:07:04;;;;;;;3.55;0.43;;;8.80;99.90;;;;;;4967821;28;20053;-77
2023/12/26 04:09:30;;;;;;;0.08;0.00;;;8.80;99.90;;;;;;4966720;28;20498;-76
2023/12/26 04:11:55;;;;;;;2.17;0.20;;;8.80;99.90;;;;;;4955874;28;20130;-76
2023/12/26 04:14:21;;;;;;;2.15;0.55;;;8.80;99.90;;;;;;4967937;28;20092;-76
2023/12/26 04:16:47;;;;;;;0.85;0.15;;;8.80;99.90;;;;;;4971951;28;20038;-76
2023/12/26 04:19:12;;;;;;;6.25;0.50;;;8.80;99.90;;;;;;4970639;28;20045;-76
2023/12/26 04:21:38;;;;;;;1.80;0.45;;;8.70;99.90;;;;;;4971901;28;20121;-76
2023/12/26 04:24:04;;;;;;;0.03;0.00;;;8.70;99.90;;;;;;4968351;28;20039;-76
2023/12/26 04:26:30;;;;;;;2.40;0.40;;;8.60;99.90;;;;;;4969616;28;20086;-76
2023/12/26 04:28:56;;;;;;;4.22;0.50;;;8.60;99.90;;;;;;4956827;28;20431;-76
2023/12/26 04:31:22;;;;;;;1.65;0.47;;;8.60;99.90;;;;;;4970016;28;20526;-76
2023/12/26 04:33:47;;;;;;;5.47;1.00;;;8.60;99.90;;;;;;4966655;28;20137;-76
2023/12/26 04:36:13;;;;;;;4.45;0.40;;;8.50;99.90;;;;;;4968134;28;20038;-76
2023/12/26 04:38:39;;;;;;;0.88;0.30;;;8.50;99.90;;;;;;4968404;28;20042;-76
2023/12/26 04:41:12;;;;;;;2.63;0.35;;;8.40;99.90;;;;;;4972129;28;20038;-76
2023/12/26 04:43:39;;;;;;;2.17;0.15;;;8.40;99.90;;;;;;4969621;28;20368;-76
2023/12/26 04:46:04;;;;;;;2.47;0.52;;;8.40;99.90;;;;;;4971891;28;20518;-76
2023/12/26 04:48:30;;;;;;;0.52;0.30;;;8.30;99.90;;;;;;4951117;28;20062;-76
2023/12/26 04:50:56;;;;;;;0.63;0.10;;;8.30;99.90;;;;;;4969643;28;20053;-76
2023/12/26 04:53:24;;;;;;;1.85;0.68;;;8.20;99.90;;;;;;4966489;28;20050;-76
2023/12/26 04:55:50;;;;;;;1.45;0.43;;;8.20;99.90;;;;;;4959382;28;20553;-76
2023/12/26 04:58:15;;;;;;;2.80;0.80;;;8.20;99.90;;;;;;4953352;28;20039;-76
2023/12/26 05:00:43;;;;;;;0.30;0.20;;;8.20;99.90;;;;;;4968327;28;20046;-76
2023/12/26 05:03:09;;;;;;;3.30;0.43;;;8.10;99.90;;;;;;4954226;28;20046;-76
2023/12/26 05:05:34;;;;;;;1.10;0.80;;;8.20;99.90;;;;;;4953734;28;20722;-76
2023/12/26 05:08:00;;;;;;;2.83;0.20;;;8.10;99.90;;;;;;4970776;28;20047;-76
2023/12/26 05:10:26;;;;;;;2.00;0.43;;;8.10;99.90;;;;;;4958650;28;20791;-76
2023/12/26 05:12:52;;;;;;;2.38;0.65;;;8.10;99.90;;;;;;4955265;28;20039;-76
2023/12/26 05:15:18;;;;;;;0.82;0.35;;;8.20;99.90;;;;;;4955045;28;20034;-76
2023/12/26 05:17:44;;;;;;;3.92;0.22;;;8.20;99.90;;;;;;4970919;28;20511;-76
2023/12/26 05:20:10;;;;;;;0.55;0.00;;;8.20;99.90;;;;;;4952517;28;20043;-76
2023/12/26 05:22:36;;;;;;;0.10;0.03;;;8.20;99.90;;;;;;4969419;28;20043;-76
2023/12/26 05:25:02;;;;;;;2.67;0.45;;;8.30;99.90;;;;;;4970644;28;20062;-76
2023/12/26 05:27:27;;;;;;;0.00;0.00;;;8.40;99.90;;;;;;4970799;28;20491;-76
2023/12/26 05:29:53;;;;;;;0.00;0.00;;;8.40;99.90;;;;;;4963339;28;20046;-76
2023/12/26 05:32:19;;;;;;;0.30;0.10;;;8.50;99.90;;;;;;4970855;28;20043;-76
2023/12/26 05:34:45;;;;;;;1.65;0.40;;;8.60;99.90;;;;;;4970230;28;20039;-76
2023/12/26 05:37:11;;;;;;;0.28;0.13;;;8.60;99.90;;;;;;4969914;28;20047;-76
2023/12/26 05:39:36;;;;;;;1.70;0.20;;;8.60;99.90;;;;;;4966902;28;20384;-76
2023/12/26 05:42:03;;;;;;;2.70;0.08;;;8.70;99.90;;;;;;4970101;28;20035;-76
2023/12/26 05:44:28;;;;;;;3.00;0.38;;;8.70;99.90;;;;;;4970005;28;20069;-77
2023/12/26 05:46:54;;;;;;;4.00;0.55;;;8.70;99.90;;;;;;4970590;28;20051;-77
2023/12/26 05:49:20;;;;;;;3.72;0.10;;;8.80;99.90;;;;;;4954657;28;20050;-77
2023/12/26 05:51:46;;;;;;;0.00;0.00;;;8.80;99.90;;;;;;4953468;28;20046;-76
2023/12/26 05:54:11;;;;;;;0.15;0.03;;;8.80;99.90;;;;;;4969262;28;21220;-76
2023/12/26 05:56:37;;;;;;;0.10;0.00;;;8.80;99.90;;;;;;4969945;28;20126;-76
2023/12/26 05:59:03;;;;;;;0.52;0.30;;;8.90;99.90;;;;;;4969340;28;20097;-76
2023/12/26 06:01:29;;;;;;;2.63;0.28;;;8.90;99.90;;;;;;4967905;28;20047;-76
2023/12/26 06:03:54;;;;;;;0.85;0.10;;;9.00;99.90;;;;;;4969499;28;20430;-76
2023/12/26 06:06:21;;;;;;;3.75;0.30;;;9.00;99.90;;;;;;4951805;28;20434;-76
2023/12/26 06:08:46;;;;;;;0.85;0.20;;;9.00;99.90;;;;;;4968424;28;20070;-76
2023/12/26 06:11:12;;;;;;;2.15;0.13;;;9.00;99.90;;;;;;4964462;28;20039;-76
2023/12/26 06:13:38;;;;;;;1.45;0.43;;;9.10;99.90;;;;;;4961544;28;20049;-76
2023/12/26 06:16:04;;;;;;;0.68;0.10;;;9.10;99.90;;;;;;4953317;28;20118;-76
2023/12/26 06:18:29;;;;;;;2.03;0.47;;;9.10;99.90;;;;;;4965919;28;20042;-76
2023/12/26 06:20:55;;;;;;;6.25;1.15;;;9.10;99.90;;;;;;4967004;28;20042;-76
2023/12/26 06:23:21;;;;;;;1.45;0.28;;;9.10;99.90;;;;;;4951289;28;20075;-76
2023/12/26 06:25:47;;;;;;;0.10;0.10;;;9.10;99.90;;;;;;4953141;28;20035;-76
2023/12/26 06:28:12;;;;;;;0.43;0.10;;;9.10;99.90;;;;;;4970084;28;20065;-76
2023/12/26 06:30:38;;;;;;;0.22;0.13;;;9.20;99.90;;;;;;4965768;28;20051;-76
2023/12/26 06:33:04;;;;;;;1.50;0.17;;;9.20;99.90;;;;;;4965204;28;20094;-76
2023/12/26 06:35:30;;;;;;;0.03;0.03;;;9.20;99.90;;;;;;4965053;28;20093;-76
2023/12/26 06:37:55;;;;;;;3.78;0.57;;;9.20;99.90;;;;;;4967064;28;20046;-76
2023/12/26 06:40:21;;;;;;;0.00;0.00;;;9.20;99.90;;;;;;4952957;28;20051;-76
2023/12/26 06:42:47;;;;;;;0.50;0.32;;;9.20;99.90;;;;;;4968468;28;20082;-76
2023/12/26 06:45:12;;;;;;;0.20;0.20;;;9.20;99.90;;;;;;4965343;28;20105;-76
2023/12/26 06:47:40;;;;;;;1.70;0.30;;;9.20;99.90;;;;;;4964354;28;20050;-76
2023/12/26 06:50:06;;;;;;;1.77;0.25;;;9.20;99.90;;;;;;4967618;28;20130;-76
2023/12/26 06:52:32;;;;;;;2.75;0.68;;;9.20;99.90;;;;;;4967628;28;20100;-76
2023/12/26 06:54:58;;;;;;;0.35;0.30;;;9.20;99.90;;;;;;4966426;28;20427;-76
2023/12/26 06:57:24;;;;;;;5.03;1.20;;;9.20;99.90;;;;;;4970748;28;20042;-77
2023/12/26 06:59:52;;;;;;;0.30;0.20;;;9.20;99.90;;;;;;4969275;28;20487;-76
2023/12/26 07:02:19;;;;;;;4.85;1.05;;;9.20;99.90;;;;;;4969808;28;20070;-76
2023/12/26 07:04:44;;;;;;;0.10;0.10;;;9.20;99.90;;;;;;4956361;28;20039;-76
2023/12/26 07:07:11;;;;;;;4.90;0.50;;;9.20;99.90;;;;;;4954953;28;20050;-76
2023/12/26 07:09:37;;;;;;;0.98;0.10;;;9.20;99.90;;;;;;4955742;28;20121;-76
2023/12/26 07:12:03;;;;;;;6.50;0.65;;;9.20;99.90;;;;;;4946245;28;20109;-76
2023/12/26 07:14:29;;;;;;;5.57;1.33;;;9.20;99.90;;;;;;4956119;28;20125;-76
2023/12/26 07:16:56;;;;;;;0.52;0.30;;;9.20;99.90;;;;;;4970662;28;20126;-76
2023/12/26 07:19:22;;;;;;;0.10;0.08;;;9.10;99.90;;;;;;4951728;28;20039;-76
2023/12/26 07:21:48;;;;;;;1.77;0.30;;;9.10;99.90;;;;;;4954459;28;20049;-76
2023/12/26 07:24:14;;;;;;;5.70;0.32;;;9.10;99.90;;;;;;4971545;28;20050;-76
2023/12/26 07:26:40;;;;;;;6.68;0.40;;;9.10;99.90;;;;;;4968459;28;20043;-76
2023/12/26 07:29:06;;;;;;;1.80;0.20;;;9.10;99.90;;;;;;4971724;28;20042;-76
2023/12/26 07:31:32;;;;;;;7.88;0.77;;;9.10;99.90;;;;;;4971299;28;20055;-76
2023/12/26 07:34:00;;;;;;;0.10;0.10;;;9.10;99.90;;;;;;4953223;28;20035;-76
2023/12/26 07:36:26;;;;;;;2.28;0.32;;;9.10;99.90;;;;;;4966721;28;20031;-76
2023/12/26 07:38:51;;;;;;;3.40;0.20;;;9.00;99.90;;;;;;4970223;28;20123;-76
2023/12/26 07:41:17;;;;;;;0.95;0.15;;;9.00;99.90;;;;;;4956412;28;20171;-77
2023/12/26 07:43:44;;;;;;;1.52;0.13;;;9.00;99.90;;;;;;4967058;28;20043;-77
2023/12/26 07:46:10;;;;;;;1.75;0.57;;;8.90;99.90;;;;;;4968744;28;20089;-77
2023/12/26 07:48:36;;;;;;;1.67;0.10;;;8.90;99.90;;;;;;4952444;28;20101;-77
2023/12/26 07:51:02;;;;;;;1.35;0.40;;;8.80;99.90;;;;;;4966346;28;20101;-76
2023/12/26 07:53:27;;;;;;;0.50;0.20;;;8.80;99.90;;;;;;4968914;28;20695;-76
2023/12/26 07:55:53;;;;;;;2.40;0.38;;;8.80;99.90;;;;;;4968251;28;20383;-76
2023/12/26 07:58:19;;;;;;;7.82;1.40;;;8.80;99.90;;;;;;4971076;28;20046;-76
2023/12/26 08:00:45;;;;;;;1.08;0.52;;;8.80;99.90;;;;;;4964125;28;20111;-77
2023/12/26 08:03:15;;;;;;;6.22;0.50;;;8.80;99.90;;;;;;4969386;28;20042;-76
2023/12/26 08:05:42;;;;;;;6.07;0.52;;;8.80;99.90;;;;;;4952347;28;20055;-76
2023/12/26 08:08:10;;;;;;;2.60;0.65;;;8.80;99.90;;;;;;4970636;28;20042;-76
2023/12/26 08:10:36;;;;;;;2.13;1.45;;;8.90;99.90;;;;;;4968471;28;20051;-76
2023/12/26 08:13:01;;;;;;;0.80;0.20;;;8.90;99.90;;;;;;4966906;28;20050;-76
2023/12/26 08:15:27;;;;;;;0.55;0.17;;;8.90;99.90;;;;;;4953619;28;20355;-76
2023/12/26 08:17:53;;;;;;;1.95;0.68;;;8.90;99.90;;;;;;4966923;28;20057;-76
2023/12/26 08:20:18;;;;;;;6.72;0.20;;;9.00;99.90;;;;;;4970575;28;20390;-76
2023/12/26 08:22:44;;;;;;;11.90;1.20;;;9.00;99.90;;;;;;4950795;28;20045;-76
2023/12/26 08:25:10;;;;;;;0.13;0.10;;;9.00;99.90;;;;;;4969887;28;20494;-76
2023/12/26 08:27:37;;;;;;;1.67;0.22;;;9.00;99.90;;;;;;4951131;28;20047;-76
2023/12/26 08:30:03;;;;;;;4.78;0.10;;;9.00;99.90;;;;;;4971269;28;20050;-77
2023/12/26 08:32:29;;;;;;;10.65;0.77;;;9.10;99.90;;;;;;4962982;28;20623;-76
2023/12/26 08:34:55;;;;;;;0.00;0.00;;;9.00;99.90;;;;;;4970715;28;20045;-76
2023/12/26 08:37:20;;;;;;;3.60;0.38;;;9.10;99.90;;;;;;4950113;28;20136;-76
2023/12/26 08:39:46;;;;;;;3.30;0.30;;;9.10;99.90;;;;;;4971252;28;20038;-76
2023/12/26 08:42:12;;;;;;;1.23;0.50;;;9.10;99.90;;;;;;4969470;28;20039;-77
2023/12/26 08:44:38;;;;;;;1.45;0.63;;;9.00;99.90;;;;;;4969459;28;20615;-77
2023/12/26 08:47:04;;;;;;;6.35;0.70;;;9.10;99.90;;;;;;4954173;28;20062;-76
2023/12/26 08:49:30;;;;;;;0.55;0.22;;;9.10;99.90;;;;;;4986159;28;20054;-76
2023/12/26 08:51:56;;;;;;;0.63;0.43;;;9.10;99.90;;;;;;4943106;28;20046;-76
2023/12/26 08:54:21;;;;;;;0.93;0.30;;;9.10;99.90;;;;;;4963813;28;20561;-77
2023/12/26 08:56:48;;;;;;;2.78;0.80;;;9.10;99.90;;;;;;4949770;28;20144;-77
2023/12/26 08:59:14;;;;;;;0.38;0.20;;;9.10;99.90;;;;;;4966877;28;20049;-77
2023/12/26 09:01:39;;;;;;;2.83;0.65;;;9.20;99.90;;;;;;4966775;28;20558;-77
2023/12/26 09:04:07;;;;;;;4.10;0.47;;;9.20;99.90;;;;;;4966855;28;20081;-77
2023/12/26 09:06:33;;;;;;;2.85;0.47;;;9.20;99.90;;;;;;4969295;28;20426;-76
2023/12/26 09:08:59;;;;;;;4.00;0.60;;;9.20;99.90;;;;;;4950654;28;20046;-76
2023/12/26 09:11:25;;;;;;;0.50;0.20;;;9.30;99.90;;;;;;4969503;28;20047;-76
2023/12/26 09:13:50;;;;;;;0.28;0.22;;;9.30;99.90;;;;;;4947476;28;20051;-76
2023/12/26 09:16:16;;;;;;;7.88;1.13;;;9.40;99.90;;;;;;4971002;28;20081;-76
2023/12/26 09:18:42;;;;;;;0.30;0.30;;;9.40;99.90;;;;;;4966278;28;20039;-76
2023/12/26 09:21:08;;;;;;;8.60;1.60;;;9.40;99.90;;;;;;4953049;28;20046;-77
2023/12/26 09:23:34;;;;;;;5.70;0.85;;;9.40;99.90;;;;;;4963776;28;20559;-77
2023/12/26 09:26:08;;;;;;;1.55;0.55;;;9.50;99.90;;;;;;4950967;28;20053;-77
2023/12/26 09:28:34;;;;;;;3.88;0.57;;;9.50;99.90;;;;;;4966680;28;20042;-76
2023/12/26 09:31:00;;;;;;;2.38;0.32;;;9.50;99.90;;;;;;4963744;28;20443;-76
2023/12/26 09:33:26;;;;;;;3.97;1.27;;;9.50;99.90;;;;;;4946798;28;20043;-77
2023/12/26 09:35:51;;;;;;;3.83;0.80;;;9.50;99.90;;;;;;4953563;28;20045;-77
2023/12/26 09:38:17;;;;;;;2.55;0.63;;;9.50;99.90;;;;;;4964808;28;20660;-77
2023/12/26 09:40:43;;;;;;;1.83;0.90;;;9.60;99.90;;;;;;4963424;28;20035;-77
2023/12/26 09:43:09;;;;;;;3.10;0.85;;;9.60;99.90;;;;;;4969268;28;20039;-76
2023/12/26 09:45:35;;;;;;;11.95;0.90;;;9.60;99.90;;;;;;4966095;28;20097;-76
2023/12/26 09:48:01;;;;;;;1.35;0.57;;;9.60;99.90;;;;;;4952010;28;20098;-76
2023/12/26 09:50:27;;;;;;;1.67;0.30;;;9.60;99.90;;;;;;4960926;28;20160;-76
2023/12/26 09:53:00;;;;;;;5.10;0.65;;;9.60;99.90;;;;;;4952526;28;20035;-76
2023/12/26 09:55:27;;;;;;;1.45;0.32;;;9.70;99.90;;;;;;4956550;28;20061;-76
2023/12/26 09:57:56;;;;;;;5.82;0.82;;;9.70;99.90;;;;;;4966862;28;20047;-77
2023/12/26 10:00:23;;;;;;;1.70;0.65;;;9.60;99.90;;;;;;4961920;28;20488;-77
2023/12/26 10:02:49;;;;;;;0.65;0.28;;;9.60;99.90;;;;;;4950886;28;20039;-77
2023/12/26 10:05:15;;;;;;;2.30;0.20;;;9.70;99.90;;;;;;4969133;28;20043;-76
2023/12/26 10:07:41;;;;;;;8.70;1.48;;;9.70;99.90;;;;;;4954280;28;20049;-76
2023/12/26 10:10:07;;;;;;;1.88;0.73;;;9.70;99.90;;;;;;4968866;28;20043;-76
2023/12/26 10:12:35;;;;;;;1.63;0.17;;;9.70;99.90;;;;;;4969715;28;20049;-77
2023/12/26 10:15:02;;;;;;;6.45;1.23;;;9.90;99.90;;;;;;4953595;28;20038;-76
2023/12/26 10:17:29;;;;;;;0.85;0.05;;;10.00;99.90;;;;;;4958551;28;20054;-76
2023/12/26 10:19:58;;;;;;;2.22;0.70;;;10.10;99.90;;;;;;4949955;28;20035;-77
2023/12/26 10:22:25;;;;;;;1.98;0.60;;;10.10;99.90;;;;;;4951688;28;20122;-76
2023/12/26 10:24:51;;;;;;;1.75;0.45;;;10.10;99.90;;;;;;4952233;28;20102;-76
2023/12/26 10:27:17;;;;;;;9.95;0.90;;;10.00;99.90;;;;;;4965689;28;20037;-77
2023/12/26 10:29:56;;;;;;;5.93;0.93;;;10.00;99.90;;;;;;4952686;28;20043;-77
2023/12/26 10:32:25;;;;;;;5.47;0.73;;;10.00;99.90;;;;;;4969772;28;20050;-76
2023/12/26 10:34:55;;;;;;;0.47;0.20;;;10.00;99.90;;;;;;4951965;28;20723;-76
2023/12/26 10:37:24;;;;;;;2.45;0.43;;;10.00;99.90;;;;;;4949419;28;20376;-76
2023/12/26 10:39:51;;;;;;;3.53;0.40;;;10.00;99.90;;;;;;4966467;28;20046;-76
2023/12/26 10:42:18;;;;;;;1.63;0.65;;;9.90;99.90;;;;;;4953591;28;20055;-76
2023/12/26 10:45:00;;;;;;;1.73;0.43;;;9.90;99.90;;;;;;4968232;28;20046;-76
2023/12/26 10:47:28;;;;;;;6.63;0.57;;;9.90;99.90;;;;;;4967730;28;20062;-77
2023/12/26 10:49:59;;;;;;;1.58;0.20;;;9.90;99.90;;;;;;4937110;28;20054;-77
2023/12/26 10:52:29;;;;;;;0.15;0.10;;;9.90;99.90;;;;;;4943136;28;20043;-77
2023/12/26 10:55:00;;;;;;;14.18;1.27;;;9.90;99.90;;;;;;4965891;28;20431;-77
2023/12/26 10:57:30;;;;;;;1.48;0.35;;;10.00;99.90;;;;;;4951058;28;20043;-77
2023/12/26 13:52:22;;;;;;;0.95;0.20;;;9.60;99.90;;;;;;4968888;28;20129;-77
2023/12/26 13:55:25;;;;;;;2.13;0.30;;;9.60;99.90;;;;;;4946764;28;20038;-77
2023/12/26 13:58:28;;;;;;;0.73;0.20;;;9.50;99.90;;;;;;4968771;28;20122;-77
2023/12/26 14:01:32;;;;;;;0.80;0.10;;;9.40;99.90;;;;;;4969167;28;20563;-77
2023/12/26 14:04:35;;;;;;;7.22;0.32;;;9.40;99.90;;;;;;4966982;28;20039;-77
2023/12/26 14:07:39;;;;;;;0.63;0.45;;;9.40;99.90;;;;;;4965946;28;20161;-77
2023/12/26 14:10:42;;;;;;;3.92;0.57;;;9.40;99.90;;;;;;4948550;28;20463;-76
2023/12/26 14:13:46;;;;;;;0.40;0.10;;;9.30;99.90;;;;;;4955900;28;20049;-77
2023/12/26 14:16:49;;;;;;;0.15;0.15;;;9.20;99.90;;;;;;4964766;28;20034;-77
2023/12/26 14:19:53;;;;;;;1.92;0.38;;;9.10;99.90;;;;;;4970835;28;20054;-77
2023/12/26 14:22:56;;;;;;;1.08;0.10;;;8.90;99.90;;;;;;4967258;28;20038;-77
2023/12/26 14:25:59;;;;;;;1.40;0.00;;;8.90;99.90;;;;;;4968793;28;20070;-77
2023/12/26 14:29:02;;;;;;;0.00;0.00;;;8.80;99.90;;;;;;4970725;28;20078;-77
2023/12/26 14:32:06;;;;;;;0.80;0.20;;;8.70;99.90;;;;;;4968014;28;20045;-77
2023/12/26 14:35:09;;;;;;;0.50;0.35;;;8.70;99.90;;;;;;4971893;28;20044;-77
2023/12/26 14:38:13;;;;;;;1.83;0.65;;;8.60;99.90;;;;;;4967652;28;20078;-77
2023/12/26 14:41:16;;;;;;;0.80;0.00;;;8.50;99.90;;;;;;4971914;28;20090;-77
2023/12/26 14:44:19;;;;;;;0.00;0.00;;;8.50;99.90;;;;;;4967455;28;20494;-77
2023/12/26 14:47:23;;;;;;;5.25;0.30;;;8.40;99.90;;;;;;4963935;28;20054;-77
2023/12/26 14:49:48;;;;;;;4.93;0.25;;;8.30;99.90;;;;;;4969256;28;20152;-78
2023/12/26 14:52:14;;;;;;;0.10;0.00;;;8.20;99.90;;;;;;4969862;28;20074;-77
2023/12/26 14:54:40;;;;;;;0.00;0.00;;;8.10;99.90;;;;;;4970003;28;20041;-77
2023/12/26 14:57:05;;;;;;;0.20;0.03;;;8.10;99.90;;;;;;4950855;28;20046;-77
2023/12/26 14:59:31;;;;;;;0.15;0.15;;;8.00;99.90;;;;;;4968480;28;20049;-77
2023/12/26 15:01:59;;;;;;;6.03;0.35;;;8.00;99.90;;;;;;4951047;28;20070;-77
2023/12/26 15:04:25;;;;;;;0.20;0.10;;;8.10;99.90;;;;;;4966635;28;20043;-77
2023/12/26 15:06:51;;;;;;;0.10;0.10;;;8.10;99.90;;;;;;4950198;28;20042;-77
2023/12/26 15:09:17;;;;;;;0.25;0.05;;;8.10;99.90;;;;;;4966224;28;20491;-77
2023/12/26 15:11:42;;;;;;;0.73;0.10;;;8.10;99.90;;;;;;4953264;28;20035;-77
2023/12/26 15:14:15;;;;;;;0.60;0.00;;;8.00;99.90;;;;;;4965501;28;20051;-77
2023/12/26 15:16:40;;;;;;;0.40;0.10;;;8.00;99.90;;;;;;4972414;28;20113;-77
2023/12/26 15:19:06;;;;;;;1.58;0.52;;;7.90;99.90;;;;;;4968719;28;20495;-78
2023/12/26 15:21:32;;;;;;;0.00;0.00;;;7.80;99.90;;;;;;4971937;28;20095;-78
2023/12/26 15:23:58;;;;;;;0.28;0.00;;;7.80;99.90;;;;;;4955725;28;20043;-78
2023/12/26 15:26:24;;;;;;;1.40;0.03;;;7.70;99.90;;;;;;4956852;28;20079;-78
2023/12/26 15:28:50;;;;;;;0.00;0.00;;;7.70;99.90;;;;;;4957303;28;20050;-77
2023/12/26 15:31:19;;;;;;;0.17;0.10;;;7.70;99.90;;;;;;4957148;28;20043;-78
2023/12/26 15:33:47;;;;;;;0.40;0.40;;;7.60;99.90;;;;;;4952216;28;20109;-78
2023/12/26 15:36:20;;;;;;;1.35;0.22;;;7.50;99.90;;;;;;4955784;28;20035;-78
2023/12/26 15:38:46;;;;;;;0.85;0.00;;;7.50;99.90;;;;;;4957075;28;20460;-78
2023/12/26 15:41:12;;;;;;;11.63;0.60;;;7.50;99.90;;;;;;4972319;28;20039;-78
2023/12/26 15:43:38;;;;;;;0.00;0.00;;;7.50;99.90;;;;;;4985768;28;20066;-77
2023/12/26 15:46:17;;;;;;;1.27;0.20;;;7.40;99.90;;;;;;4967781;28;20042;-77
2023/12/26 15:48:43;;;;;;;1.55;0.00;;;7.40;99.90;;;;;;4956840;28;20398;-77
2023/12/26 15:51:09;;;;;;;0.80;0.08;;;7.40;99.90;;;;;;4968678;28;20109;-77